createdAt,value
2022-11-04T00:00:05.026Z,0
2022-11-04T00:01:05.023Z,0
2022-11-04T00:02:05.065Z,0
2022-11-04T00:03:05.310Z,0
2022-11-04T00:04:05.210Z,0
2022-11-04T00:05:04.968Z,0
2022-11-04T00:06:04.996Z,0
2022-11-04T00:07:05.005Z,0
2022-11-04T00:08:04.860Z,0
2022-11-04T00:09:11.244Z,0
2022-11-04T00:10:05.027Z,0
2022-11-04T00:11:04.848Z,0
2022-11-04T00:12:04.871Z,0
2022-11-04T00:13:05.681Z,0
2022-11-04T00:14:05.202Z,0
2022-11-04T00:15:04.933Z,0
2022-11-04T00:16:04.852Z,0
2022-11-04T00:17:04.961Z,0
2022-11-04T00:18:04.850Z,0
2022-11-04T00:19:05.298Z,0
2022-11-04T00:20:08.009Z,0
2022-11-04T00:21:05.007Z,0
2022-11-04T00:22:05.001Z,0
2022-11-04T00:23:05.213Z,0
2022-11-04T00:24:05.206Z,0
2022-11-04T00:25:04.955Z,0
2022-11-04T00:26:04.999Z,0
2022-11-04T00:27:05.033Z,0
2022-11-04T00:28:05.637Z,0
2022-11-04T00:29:05.209Z,0
2022-11-04T00:30:04.976Z,0
2022-11-04T00:31:04.869Z,0
2022-11-04T00:32:04.885Z,0
2022-11-04T00:33:04.981Z,0
2022-11-04T00:34:05.198Z,0
2022-11-04T00:35:05.027Z,0
2022-11-04T00:36:07.843Z,0
2022-11-04T00:37:04.948Z,0
2022-11-04T00:38:05.079Z,0
2022-11-04T00:39:05.279Z,0
2022-11-04T00:40:05.012Z,0
2022-11-04T00:41:04.983Z,0
2022-11-04T00:42:04.913Z,0
2022-11-04T00:43:05.278Z,0
2022-11-04T00:44:05.328Z,0
2022-11-04T00:45:04.999Z,0
2022-11-04T00:46:04.974Z,0
2022-11-04T00:47:08.000Z,0
2022-11-04T00:48:05.152Z,0
2022-11-04T00:49:05.279Z,0
2022-11-04T00:50:04.914Z,0
2022-11-04T00:51:04.954Z,0
2022-11-04T00:52:04.865Z,0
2022-11-04T00:53:05.258Z,0
2022-11-04T00:54:05.277Z,0
2022-11-04T00:55:04.945Z,0
2022-11-04T00:56:04.841Z,0
2022-11-04T00:57:04.841Z,0
2022-11-04T00:58:10.961Z,0
2022-11-04T00:59:07.030Z,0
2022-11-04T01:00:04.900Z,0
2022-11-04T01:01:05.023Z,0
2022-11-04T01:02:05.085Z,0
2022-11-04T01:03:05.087Z,0
2022-11-04T01:04:05.216Z,0
2022-11-04T01:05:04.843Z,0
2022-11-04T01:06:04.959Z,0
2022-11-04T01:07:05.019Z,0
2022-11-04T01:08:04.977Z,0
2022-11-04T01:09:10.922Z,0
2022-11-04T01:10:04.952Z,0
2022-11-04T01:11:04.844Z,0
2022-11-04T01:12:04.882Z,0
2022-11-04T01:13:05.510Z,0
2022-11-04T01:14:05.207Z,0
2022-11-04T01:15:04.946Z,0
2022-11-04T01:16:04.881Z,0
2022-11-04T01:17:04.946Z,0
2022-11-04T01:18:05.183Z,0
2022-11-04T01:19:05.285Z,0
2022-11-04T01:20:07.999Z,0
2022-11-04T01:21:04.918Z,0
2022-11-04T01:22:04.840Z,0
2022-11-04T01:23:04.842Z,0
2022-11-04T01:24:05.277Z,0
2022-11-04T01:25:05.063Z,0
2022-11-04T01:26:04.977Z,0
2022-11-04T01:27:04.950Z,0
2022-11-04T01:28:05.344Z,0
2022-11-04T01:29:05.208Z,0
2022-11-04T01:30:05.003Z,0
2022-11-04T01:31:07.993Z,0
2022-11-04T01:32:05.054Z,0
2022-11-04T01:33:04.988Z,0
2022-11-04T01:34:05.268Z,0
2022-11-04T01:35:04.929Z,0
2022-11-04T01:36:04.969Z,0
2022-11-04T01:37:04.862Z,0
2022-11-04T01:38:05.135Z,0
2022-11-04T01:39:05.274Z,0
2022-11-04T01:40:04.924Z,0
2022-11-04T01:41:04.843Z,0
2022-11-04T01:42:07.796Z,0
2022-11-04T01:43:05.298Z,0
2022-11-04T01:44:05.202Z,0
2022-11-04T01:45:04.988Z,0
2022-11-04T01:46:04.849Z,0
2022-11-04T01:47:04.853Z,0
2022-11-04T01:48:04.860Z,0
2022-11-04T01:49:05.277Z,0
2022-11-04T01:50:05.058Z,0
2022-11-04T01:51:05.038Z,0
2022-11-04T01:52:05.054Z,0
2022-11-04T01:53:08.224Z,0
2022-11-04T01:54:05.208Z,0
2022-11-04T01:55:04.916Z,0
2022-11-04T01:56:04.851Z,0
2022-11-04T01:57:04.966Z,0
2022-11-04T01:58:05.221Z,0
2022-11-04T01:59:05.200Z,0
2022-11-04T02:00:04.917Z,0
2022-11-04T02:01:05.001Z,0
2022-11-04T02:02:05.200Z,0
2022-11-04T02:03:05.078Z,0
2022-11-04T02:04:11.152Z,0
2022-11-04T02:05:04.868Z,0
2022-11-04T02:06:04.873Z,0
2022-11-04T02:07:04.833Z,0
2022-11-04T02:08:04.991Z,0
2022-11-04T02:09:05.254Z,0
2022-11-04T02:10:04.845Z,0
2022-11-04T02:11:04.937Z,0
2022-11-04T02:12:05.035Z,0
2022-11-04T02:13:05.561Z,0
2022-11-04T02:14:05.201Z,0
2022-11-04T02:15:08.116Z,0
2022-11-04T02:16:05.069Z,0
2022-11-04T02:17:05.039Z,0
2022-11-04T02:18:04.830Z,0
2022-11-04T02:19:05.292Z,0
2022-11-04T02:20:05.052Z,0
2022-11-04T02:21:04.971Z,0
2022-11-04T02:22:04.833Z,0
2022-11-04T02:23:04.988Z,0
2022-11-04T02:24:05.216Z,0
2022-11-04T02:25:04.941Z,0
2022-11-04T02:26:07.850Z,0
2022-11-04T02:27:04.925Z,0
2022-11-04T02:28:05.281Z,0
2022-11-04T02:29:05.206Z,0
2022-11-04T02:30:04.954Z,0
2022-11-04T02:31:04.824Z,0
2022-11-04T02:32:04.845Z,0
2022-11-04T02:33:04.976Z,0
2022-11-04T02:34:05.206Z,0
2022-11-04T02:35:05.044Z,0
2022-11-04T02:36:05.003Z,0
2022-11-04T02:37:07.991Z,0
2022-11-04T02:38:05.024Z,0
2022-11-04T02:39:05.213Z,0
2022-11-04T02:40:04.955Z,0
2022-11-04T02:41:04.869Z,0
2022-11-04T02:42:04.933Z,0
2022-11-04T02:43:05.241Z,0
2022-11-04T02:44:05.280Z,0
2022-11-04T02:45:04.913Z,0
2022-11-04T02:46:04.978Z,0
2022-11-04T02:47:05.039Z,0
2022-11-04T02:48:07.845Z,0
2022-11-04T02:49:05.209Z,0
2022-11-04T02:50:05.040Z,0
2022-11-04T02:51:04.943Z,0
2022-11-04T02:52:04.845Z,0
2022-11-04T02:53:04.989Z,0
2022-11-04T02:54:05.202Z,0
2022-11-04T02:55:04.970Z,0
2022-11-04T02:56:05.038Z,0
2022-11-04T02:57:04.860Z,0
2022-11-04T02:58:05.280Z,0
2022-11-04T02:59:10.896Z,0
2022-11-04T03:00:05.021Z,0
2022-11-04T03:01:04.959Z,0
2022-11-04T03:02:04.970Z,0
2022-11-04T03:03:04.984Z,0
2022-11-04T03:04:05.280Z,0
2022-11-04T03:05:04.864Z,0
2022-11-04T03:06:04.989Z,0
2022-11-04T03:07:05.084Z,0
2022-11-04T03:08:05.023Z,0
2022-11-04T03:09:05.203Z,0
2022-11-04T03:10:07.966Z,0
2022-11-04T03:11:05.027Z,0
2022-11-04T03:12:04.965Z,0
2022-11-04T03:13:04.879Z,0
2022-11-04T03:14:04.933Z,0
2022-11-04T03:15:04.986Z,0
2022-11-04T03:16:04.929Z,0
2022-11-04T03:17:04.955Z,0
2022-11-04T03:18:05.150Z,0
2022-11-04T03:19:04.987Z,0
2022-11-04T03:20:05.026Z,0
2022-11-04T03:21:07.959Z,0
2022-11-04T03:22:05.064Z,0
2022-11-04T03:23:04.920Z,0
2022-11-04T03:24:05.277Z,0
2022-11-04T03:25:04.924Z,0
2022-11-04T03:26:04.849Z,0
2022-11-04T03:27:04.850Z,0
2022-11-04T03:28:05.413Z,0
2022-11-04T03:29:05.204Z,0
2022-11-04T03:30:04.967Z,0
2022-11-04T03:31:04.843Z,0
2022-11-04T03:32:07.865Z,0
2022-11-04T03:33:04.904Z,0
2022-11-04T03:34:05.284Z,0
2022-11-04T03:35:05.015Z,0
2022-11-04T03:36:05.256Z,0
2022-11-04T03:37:05.050Z,0
2022-11-04T03:38:04.855Z,0
2022-11-04T03:39:05.281Z,0
2022-11-04T03:40:04.954Z,0
2022-11-04T03:41:04.916Z,0
2022-11-04T03:42:04.902Z,0
2022-11-04T03:43:08.245Z,0
2022-11-04T03:44:05.057Z,0
2022-11-04T03:45:04.895Z,0
2022-11-04T03:46:04.859Z,0
2022-11-04T03:47:04.961Z,0
2022-11-04T03:48:04.917Z,0
2022-11-04T03:49:05.238Z,0
2022-11-04T03:50:04.906Z,0
2022-11-04T03:51:04.839Z,0
2022-11-04T03:52:04.856Z,0
2022-11-04T03:53:04.911Z,0
2022-11-04T03:54:08.226Z,0
2022-11-04T03:55:04.936Z,0
2022-11-04T03:56:04.945Z,0
2022-11-04T03:57:05.032Z,0
2022-11-04T03:58:05.429Z,0
2022-11-04T03:59:05.208Z,0
2022-11-04T04:00:04.890Z,0
2022-11-04T04:01:04.884Z,0
2022-11-04T04:02:04.985Z,0
2022-11-04T04:03:04.939Z,0
2022-11-04T04:04:05.282Z,0
2022-11-04T04:05:07.889Z,0
2022-11-04T04:06:04.933Z,0
2022-11-04T04:07:04.844Z,0
2022-11-04T04:08:04.855Z,0
2022-11-04T04:09:05.283Z,0
2022-11-04T04:10:05.034Z,0
2022-11-04T04:11:04.942Z,0
2022-11-04T04:12:04.870Z,0
2022-11-04T04:13:05.278Z,0
2022-11-04T04:14:05.272Z,0
2022-11-04T04:15:04.955Z,0
2022-11-04T04:16:07.984Z,0
2022-11-04T04:17:05.108Z,0
2022-11-04T04:18:05.069Z,0
2022-11-04T04:19:05.280Z,0
2022-11-04T04:20:04.883Z,0
2022-11-04T04:21:04.899Z,0
2022-11-04T04:22:04.863Z,0
2022-11-04T04:23:04.952Z,0
2022-11-04T04:24:05.199Z,0
2022-11-04T04:25:05.011Z,0
2022-11-04T04:26:04.845Z,0
2022-11-04T04:27:07.969Z,0
2022-11-04T04:28:05.227Z,0
2022-11-04T04:29:05.202Z,0
2022-11-04T04:30:04.885Z,0
2022-11-04T04:31:04.856Z,0
2022-11-04T04:32:04.989Z,0
2022-11-04T04:33:04.848Z,0
2022-11-04T04:34:05.278Z,0
2022-11-04T04:35:04.956Z,0
2022-11-04T04:36:04.946Z,0
2022-11-04T04:37:05.028Z,0
2022-11-04T04:38:08.142Z,0
2022-11-04T04:39:05.202Z,0
2022-11-04T04:40:04.925Z,0
2022-11-04T04:41:04.969Z,0
2022-11-04T04:42:04.860Z,0
2022-11-04T04:43:05.419Z,0
2022-11-04T04:44:05.206Z,0
2022-11-04T04:45:04.820Z,0
2022-11-04T04:46:04.971Z,0
2022-11-04T04:47:05.023Z,0
2022-11-04T04:48:04.880Z,0
2022-11-04T04:49:10.896Z,0
2022-11-04T04:50:04.903Z,0
2022-11-04T04:51:04.853Z,0
2022-11-04T04:52:04.849Z,0
2022-11-04T04:53:04.832Z,0
2022-11-04T04:54:05.270Z,0
2022-11-04T04:55:04.841Z,0
2022-11-04T04:56:04.954Z,0
2022-11-04T04:57:05.031Z,0
2022-11-04T04:58:05.201Z,0
2022-11-04T04:59:05.201Z,0
2022-11-04T05:00:07.935Z,0
2022-11-04T05:01:05.090Z,0
2022-11-04T05:02:05.061Z,0
2022-11-04T05:03:04.965Z,0
2022-11-04T05:04:05.212Z,0
2022-11-04T05:05:05.112Z,0
2022-11-04T05:06:04.942Z,0
2022-11-04T05:07:04.977Z,0
2022-11-04T05:08:04.947Z,0
2022-11-04T05:09:05.274Z,0
2022-11-04T05:10:04.939Z,0
2022-11-04T05:11:07.846Z,0
2022-11-04T05:12:04.901Z,0
2022-11-04T05:13:05.280Z,0
2022-11-04T05:14:05.211Z,0
2022-11-04T05:15:04.898Z,0
2022-11-04T05:16:04.843Z,0
2022-11-04T05:17:04.995Z,0
2022-11-04T05:18:04.845Z,0
2022-11-04T05:19:04.964Z,0
2022-11-04T05:20:04.949Z,0
2022-11-04T05:21:04.972Z,0
2022-11-04T05:22:07.950Z,0
2022-11-04T05:23:05.038Z,0
2022-11-04T05:24:05.048Z,0
2022-11-04T05:25:04.920Z,0
2022-11-04T05:26:04.958Z,0
2022-11-04T05:27:04.920Z,0
2022-11-04T05:28:05.291Z,0
2022-11-04T05:29:05.326Z,0
2022-11-04T05:30:04.923Z,0
2022-11-04T05:31:04.844Z,0
2022-11-04T05:32:04.857Z,0
2022-11-04T05:33:08.231Z,0
2022-11-04T05:34:05.214Z,0
2022-11-04T05:35:05.037Z,0
2022-11-04T05:36:05.057Z,0
2022-11-04T05:37:04.917Z,0
2022-11-04T05:38:04.827Z,0
2022-11-04T05:39:05.210Z,0
2022-11-04T05:40:04.948Z,0
2022-11-04T05:41:05.005Z,0
2022-11-04T05:42:04.928Z,0
2022-11-04T05:43:05.363Z,0
2022-11-04T05:44:10.874Z,0
2022-11-04T05:45:05.154Z,0
2022-11-04T05:46:05.058Z,0
2022-11-04T05:47:04.940Z,0
2022-11-04T05:48:04.990Z,0
2022-11-04T05:49:05.050Z,0
2022-11-04T05:50:05.208Z,0
2022-11-04T05:51:04.947Z,0
2022-11-04T05:52:04.916Z,0
2022-11-04T05:53:04.849Z,0
2022-11-04T05:54:05.278Z,0
2022-11-04T05:55:07.959Z,0
2022-11-04T05:56:04.952Z,0
2022-11-04T05:57:04.853Z,0
2022-11-04T05:58:05.289Z,0
2022-11-04T05:59:05.202Z,0
2022-11-04T06:00:04.893Z,0
2022-11-04T06:01:04.920Z,0
2022-11-04T06:02:05.055Z,0
2022-11-04T06:03:04.967Z,0
2022-11-04T06:04:05.402Z,0
2022-11-04T06:05:05.002Z,0
2022-11-04T06:06:07.866Z,0
2022-11-04T06:07:05.088Z,0
2022-11-04T06:08:05.031Z,0
2022-11-04T06:09:04.941Z,0
2022-11-04T06:10:05.206Z,0
2022-11-04T06:11:04.898Z,0
2022-11-04T06:12:05.037Z,0
2022-11-04T06:13:05.273Z,0
2022-11-04T06:14:05.285Z,0
2022-11-04T06:15:04.913Z,0
2022-11-04T06:16:04.912Z,0
2022-11-04T06:17:08.046Z,0
2022-11-04T06:18:05.253Z,0
2022-11-04T06:19:08.675Z,0
2022-11-04T06:20:04.986Z,0
2022-11-04T06:21:04.849Z,0
2022-11-04T06:22:04.848Z,0
2022-11-04T06:23:04.847Z,0
2022-11-04T06:24:05.281Z,0
2022-11-04T06:25:05.045Z,0
2022-11-04T06:26:04.971Z,0
2022-11-04T06:27:04.967Z,0
2022-11-04T06:28:11.266Z,0
2022-11-04T06:29:05.200Z,0
2022-11-04T06:30:04.926Z,0
2022-11-04T06:31:04.959Z,0
2022-11-04T06:32:05.060Z,0
2022-11-04T06:33:04.943Z,0
2022-11-04T06:34:05.436Z,0
2022-11-04T06:35:04.931Z,0
2022-11-04T06:36:05.023Z,0
2022-11-04T06:37:04.984Z,0
2022-11-04T06:38:04.814Z,0
2022-11-04T06:39:10.918Z,0
2022-11-04T06:40:05.024Z,0
2022-11-04T06:42:14.606Z,0
2022-11-04T06:43:14.998Z,0
2022-11-04T06:44:14.909Z,0
2022-11-04T06:45:14.713Z,0
2022-11-04T06:46:14.604Z,0
2022-11-04T06:47:23.564Z,0
2022-11-04T06:48:14.913Z,0
2022-11-04T06:49:14.774Z,0
2022-11-04T06:50:14.604Z,0
2022-11-04T06:51:14.682Z,0
2022-11-04T06:52:14.615Z,0
2022-11-04T06:53:20.654Z,0
2022-11-04T06:54:14.714Z,0
2022-11-04T06:55:14.562Z,0
2022-11-04T06:56:14.678Z,0
2022-11-04T06:57:14.734Z,0
2022-11-04T06:58:15.070Z,0
2022-11-04T06:59:14.646Z,0
2022-11-04T07:00:14.660Z,0
2022-11-04T07:01:20.262Z,0
2022-11-04T07:02:14.846Z,0
2022-11-04T07:03:14.981Z,0
2022-11-04T07:04:17.758Z,0
2022-11-04T07:05:14.638Z,0
2022-11-04T07:06:14.511Z,0
2022-11-04T07:07:14.786Z,0
2022-11-04T07:08:14.909Z,0
2022-11-04T07:09:14.533Z,0
2022-11-04T07:10:14.637Z,0
2022-11-04T07:11:14.553Z,0
2022-11-04T07:12:14.654Z,0
2022-11-04T07:13:14.899Z,0
2022-11-04T07:14:14.646Z,0
2022-11-04T07:15:18.594Z,0
2022-11-04T07:16:14.747Z,0
2022-11-04T07:17:14.742Z,89.7275390625
2022-11-04T07:18:14.909Z,88.9189453125
2022-11-04T07:19:14.721Z,88.365234375
2022-11-04T07:20:14.642Z,88.6904296875
2022-11-04T07:21:14.987Z,88.2763671875
2022-11-04T07:22:14.550Z,88.1328125
2022-11-04T07:23:14.982Z,87.9912109375
2022-11-04T07:24:14.758Z,87.83203125
2022-11-04T07:25:14.610Z,87.4921875
2022-11-04T07:26:17.539Z,86.9560546875
2022-11-04T07:27:14.605Z,86.8779296875
2022-11-04T07:28:15.028Z,86.7666015625
2022-11-04T07:29:14.637Z,86.6328125
2022-11-04T07:30:14.550Z,86.4853515625
2022-11-04T07:31:14.521Z,86.419921875
2022-11-04T07:32:14.639Z,86.392578125
2022-11-04T07:33:14.981Z,86.3193359375
2022-11-04T07:34:14.710Z,86.2744140625
2022-11-04T07:35:14.677Z,86.3603515625
2022-11-04T07:36:14.566Z,86.9931640625
2022-11-04T07:37:17.674Z,86.1162109375
2022-11-04T07:38:14.912Z,85.5966796875
2022-11-04T07:39:14.717Z,85.4501953125
2022-11-04T07:40:14.743Z,85.39453125
2022-11-04T07:41:14.513Z,85.6220703125
2022-11-04T07:42:14.545Z,85.728515625
2022-11-04T07:43:14.906Z,85.73828125
2022-11-04T07:44:14.617Z,84.849609375
2022-11-04T07:45:14.528Z,84.88671875
2022-11-04T07:46:14.670Z,84.42578125
2022-11-04T07:47:14.719Z,84.1875
2022-11-04T07:48:20.658Z,84.154296875
2022-11-04T07:49:14.694Z,84.373046875
2022-11-04T07:50:14.642Z,84.3388671875
2022-11-04T07:51:14.539Z,84.513671875
2022-11-04T07:52:14.539Z,84.4052734375
2022-11-04T07:53:14.984Z,84.5615234375
2022-11-04T07:54:14.545Z,83.9267578125
2022-11-04T07:55:14.673Z,84.1787109375
2022-11-04T07:56:14.536Z,84.1015625
2022-11-04T07:57:14.563Z,83.9755859375
2022-11-04T07:58:14.971Z,84.158203125
2022-11-04T07:59:17.652Z,83.697265625
2022-11-04T08:00:14.735Z,83.634765625
2022-11-04T08:01:14.744Z,83.619140625
2022-11-04T08:02:14.678Z,83.3974609375
2022-11-04T08:03:15.014Z,83.1083984375
2022-11-04T08:04:14.643Z,82.904296875
2022-11-04T08:05:14.503Z,82.8095703125
2022-11-04T08:06:14.649Z,82.9736328125
2022-11-04T08:07:14.656Z,83.375
2022-11-04T08:08:14.910Z,82.78515625
2022-11-04T08:09:14.853Z,82.0986328125
2022-11-04T08:10:17.627Z,82.2275390625
2022-11-04T08:11:17.698Z,82.04296875
2022-11-04T08:12:14.545Z,82.31640625
2022-11-04T08:13:14.975Z,82.5244140625
2022-11-04T08:14:14.695Z,82.251953125
2022-11-04T08:15:14.693Z,82.0693359375
2022-11-04T08:16:14.522Z,81.47265625
2022-11-04T08:17:14.652Z,81.2509765625
2022-11-04T08:18:14.914Z,80.9296875
2022-11-04T08:19:14.759Z,80.9599609375
2022-11-04T08:20:14.743Z,81.6953125
2022-11-04T08:21:17.687Z,81.2880859375
2022-11-04T08:22:14.662Z,81.421875
2022-11-04T08:23:14.987Z,81.5478515625
2022-11-04T08:24:14.754Z,81.4755859375
2022-11-04T08:25:14.635Z,80.8134765625
2022-11-04T08:26:14.540Z,80.94140625
2022-11-04T08:27:14.685Z,80.6474609375
2022-11-04T08:28:14.979Z,80.6279296875
2022-11-04T08:29:14.713Z,80.65234375
2022-11-04T08:30:14.673Z,80.5126953125
2022-11-04T08:31:14.727Z,79.66796875
2022-11-04T08:32:17.621Z,80.0810546875
2022-11-04T08:33:14.911Z,79.92578125
2022-11-04T08:34:14.751Z,79.845703125
2022-11-04T08:35:14.703Z,80.1025390625
2022-11-04T08:36:14.644Z,80.275390625
2022-11-04T08:37:14.646Z,80.4375
2022-11-04T08:38:14.902Z,80.1005859375
2022-11-04T08:39:14.659Z,79.6669921875
2022-11-04T08:40:14.738Z,79.1171875
2022-11-04T08:41:14.690Z,79.474609375
2022-11-04T08:42:14.598Z,79.2373046875
2022-11-04T08:43:20.527Z,79.31640625
2022-11-04T08:44:14.705Z,78.8291015625
2022-11-04T08:45:14.712Z,78.15625
2022-11-04T08:46:14.668Z,77.466796875
2022-11-04T08:47:14.719Z,77.431640625
2022-11-04T08:48:15.002Z,77.9287109375
2022-11-04T08:49:19.664Z,78.0068359375
2022-11-04T08:50:14.615Z,77.9423828125
2022-11-04T08:51:14.613Z,78.06640625
2022-11-04T08:52:14.655Z,78.1162109375
2022-11-04T08:53:14.908Z,77.8662109375
2022-11-04T08:54:17.575Z,77.9443359375
2022-11-04T08:55:14.630Z,78.1123046875
2022-11-04T08:56:14.523Z,78.4609375
2022-11-04T08:57:14.548Z,78.4169921875
2022-11-04T08:58:14.978Z,78.6962890625
2022-11-04T08:59:14.618Z,79.4892578125
2022-11-04T09:00:14.619Z,79.7421875
2022-11-04T09:01:14.635Z,80.201171875
2022-11-04T09:02:14.665Z,80.9150390625
2022-11-04T09:03:14.977Z,81.6865234375
2022-11-04T09:04:14.841Z,82.9384765625
2022-11-04T09:05:17.671Z,82.5478515625
2022-11-04T09:06:14.741Z,82.0361328125
2022-11-04T09:07:14.617Z,81.5791015625
2022-11-04T09:08:14.988Z,80.9228515625
2022-11-04T09:09:14.721Z,80.853515625
2022-11-04T09:10:14.614Z,81.0185546875
2022-11-04T09:11:14.511Z,80.97265625
2022-11-04T09:12:14.562Z,80.560546875
2022-11-04T09:13:14.978Z,80.2919921875
2022-11-04T09:14:14.633Z,80.4521484375
2022-11-04T09:15:14.584Z,80.5244140625
2022-11-04T09:16:17.627Z,79.9345703125
2022-11-04T09:17:14.708Z,79.380859375
2022-11-04T09:18:15.031Z,79.4306640625
2022-11-04T09:19:14.757Z,79.4482421875
2022-11-04T09:20:14.629Z,78.6064453125
2022-11-04T09:21:14.543Z,78.740234375
2022-11-04T09:22:14.533Z,77.6083984375
2022-11-04T09:23:14.981Z,77.0703125
2022-11-04T09:24:14.625Z,76.681640625
2022-11-04T09:25:14.638Z,76.5498046875
2022-11-04T09:26:14.525Z,75.3916015625
2022-11-04T09:27:17.644Z,74.4482421875
2022-11-04T09:28:14.908Z,73.9267578125
2022-11-04T09:29:14.768Z,73.625
2022-11-04T09:30:14.750Z,72.9609375
2022-11-04T09:31:14.806Z,72.4912109375
2022-11-04T09:32:14.575Z,71.9697265625
2022-11-04T09:33:14.912Z,71.435546875
2022-11-04T09:34:14.547Z,70.9970703125
2022-11-04T09:35:14.614Z,71.1025390625
2022-11-04T09:36:14.687Z,70.3076171875
2022-11-04T09:37:14.596Z,70.169921875
2022-11-04T09:38:20.614Z,69.4970703125
2022-11-04T09:39:14.749Z,68.9990234375
2022-11-04T09:40:14.609Z,68.5849609375
2022-11-04T09:41:14.502Z,68.46484375
2022-11-04T09:42:14.516Z,68.4140625
2022-11-04T09:43:14.994Z,67.4912109375
2022-11-04T09:44:14.610Z,67.2265625
2022-11-04T09:45:21.593Z,66.841796875
2022-11-04T09:46:14.537Z,66.169921875
2022-11-04T09:47:20.731Z,66.0498046875
2022-11-04T09:48:14.976Z,66.08984375
2022-11-04T09:49:17.555Z,66.8916015625
2022-11-04T09:50:14.698Z,66.7734375
2022-11-04T09:51:32.464Z,66.1552734375
2022-11-04T09:52:14.745Z,66.740234375
2022-11-04T09:53:14.903Z,66.5986328125
2022-11-04T09:54:14.744Z,66.5478515625
2022-11-04T09:55:14.540Z,66.74609375
2022-11-04T09:56:14.633Z,66.1201171875
2022-11-04T09:57:14.651Z,65.8818359375
2022-11-04T09:58:14.953Z,65.775390625
2022-11-04T09:59:14.748Z,65.5830078125
2022-11-04T10:00:17.750Z,65.998046875
2022-11-04T10:01:14.865Z,65.6181640625
2022-11-04T10:02:20.730Z,65.3271484375
2022-11-04T10:03:14.975Z,65.6748046875
2022-11-04T10:04:15.229Z,65.7939453125
2022-11-04T10:05:14.706Z,66.01953125
2022-11-04T10:06:14.520Z,66.3818359375
2022-11-04T10:07:14.646Z,66.16796875
2022-11-04T10:08:14.908Z,65.716796875
2022-11-04T10:09:14.526Z,66.25
2022-11-04T10:10:14.627Z,66.84375
2022-11-04T10:11:17.895Z,66.41796875
2022-11-04T10:12:15.962Z,65.8330078125
2022-11-04T10:13:14.904Z,65.6748046875
2022-11-04T10:14:14.658Z,65.5771484375
2022-11-04T10:15:14.554Z,64.498046875
2022-11-04T10:16:14.622Z,64.30859375
2022-11-04T10:17:14.672Z,63.6923828125
2022-11-04T10:18:14.975Z,63.4287109375
2022-11-04T10:19:14.752Z,63.3701171875
2022-11-04T10:20:14.704Z,62.79296875
2022-11-04T10:21:14.801Z,62.1630859375
2022-11-04T10:22:17.614Z,62.833984375
2022-11-04T10:23:14.905Z,62.3125
2022-11-04T10:24:14.730Z,62.669921875
2022-11-04T10:25:14.633Z,62.3310546875
2022-11-04T10:26:14.544Z,62.095703125
2022-11-04T10:27:14.536Z,61.9189453125
2022-11-04T10:28:14.617Z,61.2109375
2022-11-04T10:29:14.536Z,60.8681640625
2022-11-04T10:30:14.532Z,61.326171875
2022-11-04T10:31:14.517Z,61.5947265625
2022-11-04T10:32:18.115Z,61.18359375
2022-11-04T10:33:20.703Z,61.232421875
2022-11-04T10:34:14.720Z,61.1796875
2022-11-04T10:35:14.678Z,60.2001953125
2022-11-04T10:36:14.692Z,59.91015625
2022-11-04T10:37:14.551Z,59.556640625
2022-11-04T10:38:14.980Z,58.4326171875
2022-11-04T10:39:14.652Z,58.2333984375
2022-11-04T10:40:14.518Z,58.2958984375
2022-11-04T10:41:14.521Z,59.1513671875
2022-11-04T10:42:14.661Z,58.41796875
2022-11-04T10:43:14.909Z,57.748046875
2022-11-04T10:44:17.669Z,57.880859375
2022-11-04T10:45:14.655Z,57.9873046875
2022-11-04T10:46:14.556Z,58.5947265625
2022-11-04T10:47:14.688Z,59.3056640625
2022-11-04T10:48:14.911Z,60.236328125
2022-11-04T10:49:14.649Z,61.03125
2022-11-04T10:50:28.354Z,61.5048828125
2022-11-04T10:51:14.675Z,61.6279296875
2022-11-04T10:52:17.104Z,61.7294921875
2022-11-04T10:53:14.984Z,61.673828125
2022-11-04T10:54:14.719Z,61.45703125
2022-11-04T10:55:17.658Z,61.056640625
2022-11-04T10:56:14.654Z,61.267578125
2022-11-04T10:57:14.682Z,61.115234375
2022-11-04T10:58:15.093Z,61.189453125
2022-11-04T10:59:19.903Z,61.6328125
2022-11-04T11:00:14.605Z,61.1875
2022-11-04T11:01:15.283Z,60.78515625
2022-11-04T11:02:14.879Z,61.0048828125
2022-11-04T11:03:14.907Z,61.8154296875
2022-11-04T11:04:14.682Z,62.0361328125
2022-11-04T11:05:14.528Z,63.12890625
2022-11-04T11:06:17.635Z,63.0205078125
2022-11-04T11:07:14.742Z,63.248046875
2022-11-04T11:08:14.906Z,63.140625
2022-11-04T11:09:14.720Z,62.7333984375
2022-11-04T11:10:14.634Z,62.7236328125
2022-11-04T11:11:14.539Z,61.83984375
2022-11-04T11:12:48.947Z,61.5
2022-11-04T11:13:15.020Z,62.0107421875
2022-11-04T11:14:14.609Z,61.65625
2022-11-04T11:15:14.727Z,61.5029296875
2022-11-04T11:16:14.538Z,61.5126953125
2022-11-04T11:17:17.553Z,60.029296875
2022-11-04T11:18:14.912Z,60.916015625
2022-11-04T11:19:14.735Z,60.685546875
2022-11-04T11:20:14.599Z,61.0478515625
2022-11-04T11:21:14.677Z,61.064453125
2022-11-04T11:22:14.714Z,61.337890625
2022-11-04T11:23:14.907Z,61.43359375
2022-11-04T11:24:14.670Z,61.0087890625
2022-11-04T11:25:14.684Z,60.822265625
2022-11-04T11:26:14.588Z,60.771484375
2022-11-04T11:27:14.665Z,60.671875
2022-11-04T11:28:20.622Z,60.0029296875
2022-11-04T11:29:14.739Z,59.5498046875
2022-11-04T11:30:14.523Z,58.9873046875
2022-11-04T11:31:14.675Z,58.34765625
2022-11-04T11:32:14.738Z,58.3818359375
2022-11-04T11:33:14.907Z,58.216796875
2022-11-04T11:34:14.578Z,57.6064453125
2022-11-04T11:35:14.639Z,57.97265625
2022-11-04T11:36:14.534Z,57.6298828125
2022-11-04T11:37:14.520Z,58.1357421875
2022-11-04T11:38:14.983Z,57.9111328125
2022-11-04T11:39:17.563Z,57.3330078125
2022-11-04T11:40:14.691Z,57.53125
2022-11-04T11:41:24.873Z,56.892578125
2022-11-04T11:42:14.658Z,56.87890625
2022-11-04T11:43:14.951Z,57.08203125
2022-11-04T11:44:14.723Z,56.7734375
2022-11-04T11:45:14.527Z,56.326171875
2022-11-04T11:46:14.554Z,56.2138671875
2022-11-04T11:47:14.631Z,56.5146484375
2022-11-04T11:48:14.906Z,56.203125
2022-11-04T11:49:14.614Z,56.107421875
2022-11-04T11:50:17.539Z,56.234375
2022-11-04T11:51:15.065Z,56.537109375
2022-11-04T11:52:14.724Z,55.7236328125
2022-11-04T11:53:14.955Z,56.0166015625
2022-11-04T11:54:14.629Z,56.5380859375
2022-11-04T11:55:14.679Z,55.9990234375
2022-11-04T11:56:14.647Z,56.298828125
2022-11-04T11:57:16.755Z,56.8564453125
2022-11-04T12:01:29.719Z,56.6513671875
2022-11-04T12:02:30.411Z,56.51953125
2022-11-04T12:03:31.122Z,55.9912109375
2022-11-04T12:09:19.151Z,53.3154296875
2022-11-04T12:09:57.816Z,52.681640625
2022-11-04T12:10:57.764Z,53.3935546875
2022-11-04T12:11:57.636Z,53.1591796875
2022-11-04T12:12:58.360Z,53.2431640625
2022-11-04T12:13:58.214Z,52.625
2022-11-04T12:14:57.745Z,52.1044921875
2022-11-04T12:15:57.823Z,52.224609375
2022-11-04T12:16:57.864Z,52.1083984375
2022-11-04T12:17:58.034Z,52.3056640625
2022-11-04T12:18:57.773Z,52.294921875
2022-11-04T12:20:00.640Z,52.8798828125
2022-11-04T12:20:57.733Z,52.9951171875
2022-11-04T12:21:57.660Z,53.5234375
2022-11-04T12:22:58.119Z,53.7158203125
2022-11-04T12:23:57.731Z,53.88671875
2022-11-04T12:24:57.666Z,54.0615234375
2022-11-04T12:25:57.653Z,54.681640625
2022-11-04T12:26:57.653Z,55.25
2022-11-04T12:27:58.103Z,56.009765625
2022-11-04T12:28:58.041Z,56.1767578125
2022-11-04T12:29:57.706Z,57.5068359375
2022-11-04T12:31:00.798Z,57.9150390625
2022-11-04T12:31:57.737Z,58.2548828125
2022-11-04T12:32:58.104Z,58.7275390625
2022-11-04T12:33:57.880Z,58.677734375
2022-11-04T12:34:57.762Z,58.2880859375
2022-11-04T12:35:57.715Z,58.6455078125
2022-11-04T12:36:57.650Z,58.5546875
2022-11-04T12:37:58.112Z,58.541015625
2022-11-04T12:38:57.840Z,58.8955078125
2022-11-04T12:39:57.787Z,59.0341796875
2022-11-04T12:41:26.273Z,59.1123046875
2022-11-04T12:42:20.615Z,59.6552734375
2022-11-04T12:42:58.038Z,60.4541015625
2022-11-04T12:43:58.046Z,60.8779296875
2022-11-04T12:44:57.742Z,61.50390625